默认 日期 大小 文件数 浏览量 最新下载 xml
11:09磁力链接相关资源由用户搜索指令自动获取,结果来源于网络,本站不存储任何资料,亦不承担任何责任,请于24小时内删除,搜索到20648个磁力,显示前4000条数据,用时40ms。
    {"RARBG.txt": 30, "tonightsgirlfriend.18.11.09.britney.amber.mp4": 4615364944, "tonightsgirlfriend.18.11.09.britney.amber.nfo": 5204}
创建时间: 2018-12-06 20:12:08 大小:4.3 GB 文件数量:3 热度:55 最近下载:2025-09-15 23:15:01
    {"RARBG.com.txt": 34, "tbp-vm.131109.cherrypoppins.mp4": 284173805, "tbp-vm.131109.cherrypoppins.nfo": 485}
创建时间: 2018-12-06 20:18:06 大小:271.01 MB 文件数量:3 热度:7 最近下载:2024-02-10 18:00:27
    {"": {"JoshStoneXXX 15 11 09 Skyler Luv Hotel BBC Love XXX.avi": 325462114}}
创建时间: 2018-12-06 20:20:07 大小:310.38 MB 文件数量:1 热度:16 最近下载:2025-09-06 00:40:03
    {"RARBG.txt": 30, "upherasshole.17.11.09.vanessa.sky.mp4": 4836643950, "upherasshole.17.11.09.vanessa.sky.nfo": 5190}
创建时间: 2018-12-06 20:27:20 大小:4.5 GB 文件数量:3 热度:33 最近下载:2025-10-16 22:59:03
    {"RARBG.com.txt": 34, "ald.14.11.09.kristyna.licking.pussy.and.gorgeous.bj.mp4": 264181221, "ald.14.11.09.kristyna.licking.pussy.and.gorgeous.bj.nfo": 7006}
创建时间: 2018-12-06 20:46:47 大小:251.95 MB 文件数量:3 热度:14 最近下载:2025-03-14 23:46:04
    {"RARBG.txt": 30, "gloryholesecrets.18.11.09.rachael.cavalli.first.glory.hole.mp4": 2383437731, "gloryholesecrets.18.11.09.rachael.cavalli.first.glory.hole.nfo": 5218}
创建时间: 2018-12-06 21:39:08 大小:2.22 GB 文件数量:3 热度:25 最近下载:2025-10-08 22:44:02
    {"EuroSexParties.26.11.09.Sandra.Long.and.Cindy.White.-.Thanks.for.giving.XXX.HR.WMV-PRONCLIPS.wmv": 541271455}
创建时间: 2018-12-06 22:59:12 大小:516.2 MB 文件数量:1 热度:21 最近下载:2025-04-02 07:44:02
    {"Readme.txt": 331, "ms081109459en.exe": 826313536}
创建时间: 2018-12-07 00:09:38 大小:788.03 MB 文件数量:2 热度:13 最近下载:2024-12-28 22:50:05
    {"Sample": {"altair-uksshs-sample.wmv": 54152120}, "RARBG.com.txt": 34, "altair-uksshs.nfo": 3615, "altair-uksshs.wmv": 488977109}
创建时间: 2018-12-07 00:45:24 大小:517.97 MB 文件数量:4 热度:23 最近下载:2025-10-14 14:06:02
    {"RARBG.com.txt": 34, "tf.16.11.09.elena.koshka.hipsters.4k.mp4": 9724677372, "tf.16.11.09.elena.koshka.hipsters.4k.nfo": 5200}
创建时间: 2018-12-07 01:58:24 大小:9.06 GB 文件数量:3 热度:138 最近下载:2025-09-29 22:50:01
    {"RARBG.com.txt": 34, "tbp-ll.110929.parishiltonstyle.nfo": 520, "tbp-ll.110929.parishiltonstyle.wmv": 199539363}
创建时间: 2018-12-07 02:15:43 大小:190.3 MB 文件数量:3 热度:20 最近下载:2025-03-08 00:29:01
    {"RARBG.com.txt": 34, "pantyhosed4u.16.11.09.lucy.lume.party.dress.and.pantyhose.mp4": 1885035300, "pantyhosed4u.16.11.09.lucy.lume.party.dress.and.pantyhose.nfo": 5214}
创建时间: 2018-12-07 03:54:57 大小:1.76 GB 文件数量:3 热度:64 最近下载:2025-08-08 14:41:01
    {"RARBG.txt": 30, "trueanal.18.11.09.kenzie.reeves.mp4": 4241834970, "trueanal.18.11.09.kenzie.reeves.nfo": 5181}
创建时间: 2018-12-07 03:57:37 大小:3.95 GB 文件数量:3 热度:59 最近下载:2025-09-27 16:08:08
    {"RARBG.com.txt": 34, "tbp-ll.110908.mastoffcampee.nfo": 518, "tbp-ll.110908.mastoffcampee.wmv": 150417959}
创建时间: 2018-12-07 04:35:42 大小:143.45 MB 文件数量:3 热度:14 最近下载:2025-08-02 11:21:03
    {"poster.jpg": 26568, "screens.jpg": 507539, "mom.16.11.09.eva.berger.mp4": 1164372713}
创建时间: 2018-12-07 05:56:44 大小:1.08 GB 文件数量:3 热度:19 最近下载:2025-03-21 03:18:02
    {"RARBG.txt": 30, "rawattack.18.11.09.lexi.foxy.4k.mp4": 5828311466, "rawattack.18.11.09.lexi.foxy.4k.nfo": 5179}
创建时间: 2018-12-07 07:15:27 大小:5.43 GB 文件数量:3 热度:24 最近下载:2025-04-04 14:29:02
    {"RARBG.txt": 30, "file_id.diz": 702, "ma719ypy.nfo": 8709, "model-bio_Yasmina.txt": 590, "RARBG.COM_XXX_BANNER.jpg": 517081, "_metart-presenting-yasmina-cover.jpg": 125847, "metart-presenting-yasmina-cover-clean.jpg": 110160, "metart_presenting- ...
创建时间: 2018-12-07 07:58:34 大小:304.04 MB 文件数量:112 热度:10 最近下载:2023-04-22 16:10:16
    {"RARBG.txt": 30, "BruceAndMorgan.18.11.09.Spinning.Chair.XXX.SD.MP4-KLEENEX.mp4": 87457470}
创建时间: 2018-12-07 17:38:21 大小:83.41 MB 文件数量:2 热度:7 最近下载:2023-04-22 19:10:06
    {"RARBG.txt": 30, "Private.18.11.09.Julia.Pink.Kim.Davis.And.Mia.Blow.Busty.MILFs.Summertime.Orgy.XXX.SD.MP4-KLEENEX.mp4": 277220295}
创建时间: 2018-12-07 18:10:01 大小:264.38 MB 文件数量:2 热度:27 最近下载:2025-08-06 05:37:02
    {"21naturals.18.11.09.casey.drop.of.excitement.mp4": 221399100}
创建时间: 2018-12-07 19:18:34 大小:211.14 MB 文件数量:1 热度:17 最近下载:2025-08-06 19:21:02